Time;durP1;ratioP1;P1;durP2;ratioP2;P2;SDS_P1;SDS_P2;PMS_P1;PMS_P2;Temp;Humidity;BMP_temperature;BMP_pressure;BME280_temperature;BME280_humidity;BME280_pressure;Samples;Min_cycle;Max_cycle;Signal;HPM_P1;HPM_P2
2024/03/21 00:03:56;;;;;;;65.40;37.90;;;;;;;7.94;60.26;99441.36;233636;179;137227;-62
2024/03/21 00:08:59;;;;;;;63.50;36.90;;;;;;;7.89;60.40;99443.54;233758;179;153603;-62
2024/03/21 00:14:02;;;;;;;64.10;37.40;;;;;;;7.85;60.43;99440.19;233223;179;138649;-66
2024/03/21 00:19:05;;;;;;;57.90;34.80;;;;;;;7.81;60.61;99435.77;233727;179;137314;-62
2024/03/21 00:24:08;;;;;;;64.80;37.10;;;;;;;7.78;60.77;99431.11;233702;179;153377;-62
2024/03/21 00:29:11;;;;;;;62.20;36.30;;;;;;;7.74;60.85;99428.09;233697;179;138358;-62
2024/03/21 00:34:14;;;;;;;62.70;37.20;;;;;;;7.68;60.92;99429.25;233687;179;138496;-63
2024/03/21 00:39:20;;;;;;;64.20;36.80;;;;;;;7.62;60.91;99428.66;233578;179;153138;-61
2024/03/21 00:44:23;;;;;;;66.60;37.20;;;;;;;7.56;61.16;99418.67;233420;180;138584;-62
2024/03/21 00:49:26;;;;;;;66.40;36.30;;;;;;;7.48;61.24;99415.83;233745;180;137391;-62
2024/03/21 00:54:29;;;;;;;65.10;35.80;;;;;;;7.42;61.44;99414.34;232888;180;153231;-59
2024/03/21 00:59:32;;;;;;;60.40;36.80;;;;;;;7.38;61.41;99407.61;233651;180;138500;-61
2024/03/21 01:04:35;;;;;;;58.00;36.20;;;;;;;7.33;61.60;99407.64;233734;180;138696;-60
2024/03/21 01:09:38;;;;;;;58.90;35.90;;;;;;;7.25;61.62;99408.70;233188;180;154381;-62
2024/03/21 01:14:40;;;;;;;55.20;34.90;;;;;;;7.19;61.90;99401.04;233671;180;137664;-62
2024/03/21 01:19:44;;;;;;;57.70;34.10;;;;;;;7.14;62.04;99400.36;233796;180;137310;-62
2024/03/21 01:24:47;;;;;;;65.60;35.60;;;;;;;7.05;62.19;99398.98;233672;180;154037;-62
2024/03/21 01:29:51;;;;;;;62.30;35.80;;;;;;;6.97;62.48;99395.94;233663;180;140697;-62
2024/03/21 01:34:54;;;;;;;60.20;35.60;;;;;;;6.93;62.42;99395.77;233598;180;137639;-62
2024/03/21 01:39:57;;;;;;;67.20;36.50;;;;;;;6.86;62.58;99394.45;233391;180;154442;-62
2024/03/21 01:45:05;;;;;;;57.50;35.70;;;;;;;6.82;62.83;99394.46;233722;180;138434;-63
2024/03/21 01:50:08;;;;;;;66.20;36.90;;;;;;;6.77;62.85;99387.41;233832;180;138055;-62
2024/03/21 01:55:14;;;;;;;64.80;36.80;;;;;;;6.69;62.89;99386.15;233762;180;152960;-62
2024/03/21 02:00:17;;;;;;;64.30;36.90;;;;;;;6.62;62.95;99388.38;233737;180;137997;-62
2024/03/21 02:05:20;;;;;;;62.00;35.20;;;;;;;6.58;63.12;99387.52;233802;180;137654;-62
2024/03/21 02:10:23;;;;;;;60.30;35.00;;;;;;;6.53;63.22;99388.95;233778;180;153287;-62
2024/03/21 02:15:26;;;;;;;58.00;34.60;;;;;;;6.47;63.53;99380.90;233689;180;138446;-63
2024/03/21 02:20:29;;;;;;;63.20;35.90;;;;;;;6.41;63.90;99391.14;233782;180;138207;-61
2024/03/21 02:25:32;;;;;;;74.80;37.40;;;;;;;6.44;64.07;99384.34;233644;180;153345;-62
2024/03/21 02:30:35;;;;;;;85.20;39.40;;;;;;;6.43;63.94;99384.73;233619;180;138765;-62
2024/03/21 02:35:38;;;;;;;67.60;37.90;;;;;;;6.38;63.78;99390.20;233783;179;138214;-63
2024/03/21 02:40:41;;;;;;;75.00;38.40;;;;;;;6.30;63.78;99392.66;233545;180;153722;-63
2024/03/21 02:45:44;;;;;;;74.50;38.70;;;;;;;6.24;63.72;99397.09;233660;180;137603;-63
2024/03/21 02:50:47;;;;;;;70.90;37.80;;;;;;;6.23;63.86;99397.83;233768;180;137080;-61
2024/03/21 02:55:50;;;;;;;66.00;38.90;;;;;;;6.19;63.90;99395.53;233765;179;153996;-63
2024/03/21 03:00:53;;;;;;;74.20;38.10;;;;;;;6.15;64.02;99390.38;233744;180;137598;-62
2024/03/21 03:05:56;;;;;;;76.40;38.00;;;;;;;6.11;64.17;99391.08;233746;179;140885;-62
2024/03/21 03:11:01;;;;;;;87.90;40.30;;;;;;;6.05;64.30;99392.20;233801;179;153057;-63
2024/03/21 03:16:04;;;;;;;77.10;39.80;;;;;;;6.01;64.45;99399.20;233498;179;138644;-63
2024/03/21 03:21:07;;;;;;;78.20;40.00;;;;;;;5.97;64.53;99399.71;233743;179;137882;-63
2024/03/21 03:26:10;;;;;;;88.90;40.00;;;;;;;5.95;64.70;99398.94;233768;179;152952;-63
2024/03/21 03:31:13;;;;;;;83.90;38.70;;;;;;;5.89;64.82;99393.98;233843;179;138764;-61
2024/03/21 03:36:16;;;;;;;82.90;39.60;;;;;;;5.86;64.95;99393.06;233806;179;137839;-62
2024/03/21 03:41:19;;;;;;;89.10;40.60;;;;;;;5.84;65.29;99401.94;233753;180;153269;-61
2024/03/21 03:46:22;;;;;;;91.60;41.60;;;;;;;5.88;65.41;99398.96;233791;179;137299;-62
2024/03/21 03:51:25;;;;;;;84.70;40.50;;;;;;;5.90;65.36;99402.39;233730;180;137228;-62
2024/03/21 03:56:28;;;;;;;81.80;41.10;;;;;;;5.90;65.48;99400.65;233755;179;152279;-62
2024/03/21 04:01:31;;;;;;;75.00;40.10;;;;;;;5.94;65.54;99394.70;233723;180;138268;-62
2024/03/21 04:06:34;;;;;;;80.50;40.40;;;;;;;5.92;65.51;99389.50;233742;180;138849;-62
2024/03/21 04:11:37;;;;;;;73.00;38.70;;;;;;;5.84;65.59;99397.67;233641;179;153336;-62
2024/03/21 04:16:40;;;;;;;68.50;37.80;;;;;;;5.82;65.69;99404.29;233731;179;138134;-62
2024/03/21 04:21:43;;;;;;;77.70;40.70;;;;;;;5.85;65.64;99407.69;233682;179;137414;-61
2024/03/21 04:26:46;;;;;;;68.10;37.20;;;;;;;5.93;66.00;99412.02;233747;179;153814;-61
2024/03/21 04:31:49;;;;;;;61.60;36.90;;;;;;;6.00;65.88;99414.04;233645;179;139682;-62
2024/03/21 04:36:52;;;;;;;63.30;38.10;;;;;;;6.10;65.91;99413.85;233766;179;138250;-62
2024/03/21 04:41:55;;;;;;;62.60;38.20;;;;;;;6.20;65.80;99418.77;233757;179;153437;-63
2024/03/21 04:46:58;;;;;;;205.30;128.90;;;;;;;6.29;66.26;99420.02;233674;180;140914;-62
2024/03/21 04:52:01;;;;;;;68.40;39.40;;;;;;;6.33;65.91;99423.53;233693;180;138455;-62
2024/03/21 04:57:04;;;;;;;256.90;173.00;;;;;;;6.42;65.55;99432.02;233593;180;153872;-63
2024/03/21 05:02:07;;;;;;;74.40;43.50;;;;;;;6.49;65.38;99435.23;233692;180;137218;-64
2024/03/21 05:07:10;;;;;;;66.20;38.90;;;;;;;6.54;65.26;99437.00;233688;180;138170;-64
2024/03/21 05:12:13;;;;;;;68.70;38.70;;;;;;;6.46;64.93;99434.64;233740;179;152880;-63
2024/03/21 05:17:17;;;;;;;79.80;40.30;;;;;;;6.39;65.08;99433.16;233707;179;138209;-63
2024/03/21 05:22:20;;;;;;;406.70;296.70;;;;;;;6.39;65.44;99440.05;233660;179;137566;-63
2024/03/21 05:27:25;;;;;;;71.30;44.40;;;;;;;6.40;65.65;99448.12;233761;179;153208;-63
2024/03/21 05:32:28;;;;;;;62.60;39.40;;;;;;;6.38;65.54;99449.23;233752;180;138065;-64
2024/03/21 05:37:31;;;;;;;59.00;37.90;;;;;;;6.36;65.54;99454.61;233759;180;138233;-63
2024/03/21 05:42:34;;;;;;;59.40;38.20;;;;;;;6.37;65.79;99453.32;233734;180;152788;-63
2024/03/21 05:47:37;;;;;;;54.10;35.40;;;;;;;6.44;65.84;99458.55;233054;176;139139;-63
2024/03/21 05:52:42;;;;;;;51.00;33.70;;;;;;;6.57;65.75;99454.69;233853;180;138832;-62
2024/03/21 05:57:48;;;;;;;52.30;33.00;;;;;;;6.70;65.44;99452.41;233790;179;152915;-64
2024/03/21 06:02:51;;;;;;;50.60;32.10;;;;;;;6.79;65.18;99450.45;233738;180;137843;-63
2024/03/21 06:07:54;;;;;;;51.10;31.30;;;;;;;6.86;65.05;99445.80;233750;180;138905;-63
2024/03/21 06:12:57;;;;;;;48.40;31.30;;;;;;;6.88;64.93;99450.63;233774;180;153497;-63
2024/03/21 06:18:00;;;;;;;53.00;32.70;;;;;;;6.90;64.70;99446.51;233749;180;139325;-63
2024/03/21 06:23:04;;;;;;;57.50;33.40;;;;;;;6.91;64.57;99449.45;233726;180;138300;-63
2024/03/21 06:28:08;;;;;;;50.20;32.10;;;;;;;6.91;64.71;99454.04;233665;180;154139;-63
2024/03/21 06:33:11;;;;;;;56.20;32.90;;;;;;;6.98;64.69;99458.88;233700;180;137789;-62
2024/03/21 06:38:14;;;;;;;57.60;33.30;;;;;;;7.05;64.69;99462.31;233725;180;137772;-63
2024/03/21 06:43:17;;;;;;;53.80;34.10;;;;;;;7.11;64.74;99459.05;233752;179;153272;-62
2024/03/21 06:48:21;;;;;;;57.30;32.10;;;;;;;7.18;64.59;99454.55;233722;180;138379;-63
2024/03/21 06:53:26;;;;;;;53.60;32.40;;;;;;;7.25;64.60;99453.36;233708;180;140683;-63
2024/03/21 06:58:31;;;;;;;56.60;32.00;;;;;;;7.33;64.43;99450.20;233700;179;153003;-63
2024/03/21 07:03:34;;;;;;;49.00;30.30;;;;;;;7.37;64.29;99448.42;233731;180;137110;-63
2024/03/21 07:08:37;;;;;;;50.50;31.00;;;;;;;7.45;64.19;99447.41;233821;180;137520;-63
2024/03/21 07:13:40;;;;;;;49.30;30.10;;;;;;;7.57;64.29;99445.80;233740;179;153278;-63
2024/03/21 07:18:43;;;;;;;56.20;31.80;;;;;;;7.71;64.20;99451.55;233733;180;138384;-63
2024/03/21 07:23:46;;;;;;;58.50;32.20;;;;;;;7.86;63.65;99446.67;233803;180;138015;-63
2024/03/21 07:28:49;;;;;;;60.20;32.50;;;;;;;7.94;63.16;99445.42;233837;179;153016;-63
2024/03/21 07:33:53;;;;;;;62.40;32.70;;;;;;;8.11;63.24;99446.92;233574;179;142132;-63
2024/03/21 07:38:56;;;;;;;58.10;32.70;;;;;;;8.35;63.19;99445.52;233799;168;139685;-63
2024/03/21 07:44:01;;;;;;;65.20;34.00;;;;;;;8.48;62.34;99444.73;233747;179;153323;-62
2024/03/21 07:49:04;;;;;;;55.60;32.50;;;;;;;8.59;61.90;99444.23;233676;180;141901;-63
2024/03/21 07:54:07;;;;;;;69.60;35.50;;;;;;;8.78;61.65;99442.60;233840;179;137888;-63
2024/03/21 07:59:10;;;;;;;65.10;34.80;;;;;;;8.96;60.72;99442.96;233739;179;153399;-63
2024/03/21 08:04:13;;;;;;;60.20;36.20;;;;;;;9.07;60.22;99441.76;233671;177;138263;-62
2024/03/21 08:09:16;;;;;;;60.20;36.10;;;;;;;9.23;60.12;99442.88;233822;176;137191;-63
2024/03/21 08:14:19;;;;;;;65.60;36.40;;;;;;;9.41;59.85;99442.70;233738;179;153367;-62
2024/03/21 08:19:22;;;;;;;62.00;36.10;;;;;;;9.58;59.78;99438.62;233808;172;137813;-64
2024/03/21 08:24:26;;;;;;;57.40;34.90;;;;;;;9.77;59.94;99444.19;233578;179;138581;-63
2024/03/21 08:29:29;;;;;;;60.80;34.80;;;;;;;9.91;60.09;99437.09;233370;179;152913;-62
2024/03/21 08:34:32;;;;;;;68.30;39.60;;;;;;;10.01;59.45;99436.02;233541;179;137951;-64
2024/03/21 08:39:35;;;;;;;72.40;38.10;;;;;;;10.09;58.69;99443.17;233608;179;138508;-63
2024/03/21 08:44:38;;;;;;;68.70;37.60;;;;;;;10.22;58.52;99442.15;233717;179;153708;-63
2024/03/21 08:49:41;;;;;;;61.90;36.40;;;;;;;10.37;57.85;99439.59;233669;180;137730;-64
2024/03/21 08:54:44;;;;;;;63.60;37.90;;;;;;;10.52;57.55;99431.16;233719;179;138418;-63
2024/03/21 08:59:49;;;;;;;66.80;37.10;;;;;;;10.66;57.09;99429.48;233743;180;154315;-63
2024/03/21 09:04:52;;;;;;;63.20;36.00;;;;;;;10.77;57.12;99427.63;233691;180;137720;-63
2024/03/21 09:09:54;;;;;;;61.40;37.10;;;;;;;10.92;57.07;99433.86;233714;180;138049;-63
2024/03/21 09:14:57;;;;;;;65.10;38.10;;;;;;;11.07;56.68;99427.87;233565;180;153106;-63
2024/03/21 09:20:00;;;;;;;64.40;37.50;;;;;;;11.24;56.47;99424.89;233368;180;138590;-63
2024/03/21 09:25:04;;;;;;;65.00;37.20;;;;;;;11.40;56.39;99420.58;233672;180;138216;-62
2024/03/21 09:30:08;;;;;;;65.20;38.40;;;;;;;11.61;55.91;99415.24;233352;180;153470;-61
2024/03/21 09:35:11;;;;;;;63.60;37.40;;;;;;;11.79;55.23;99406.16;233682;180;138061;-61
2024/03/21 09:40:17;;;;;;;63.60;38.90;;;;;;;11.94;55.12;99391.36;233781;180;138123;-62
2024/03/21 09:45:23;;;;;;;63.90;37.80;;;;;;;12.09;55.20;99393.47;233716;180;153342;-62
2024/03/21 09:50:26;;;;;;;65.60;38.30;;;;;;;12.25;54.76;99387.71;233369;180;138635;-62
2024/03/21 09:55:29;;;;;;;410.30;287.40;;;;;;;12.40;54.40;99384.59;233493;180;138599;-64
2024/03/21 10:00:32;;;;;;;131.20;79.20;;;;;;;12.63;54.10;99381.11;233549;180;153460;-63
2024/03/21 10:05:36;;;;;;;64.70;38.70;;;;;;;12.83;53.19;99379.30;233632;179;138209;-64
2024/03/21 10:10:41;;;;;;;68.10;38.70;;;;;;;13.04;52.99;99373.48;233689;179;138385;-64
2024/03/21 10:15:44;;;;;;;75.70;38.50;;;;;;;13.23;52.16;99370.21;233637;180;153152;-64
2024/03/21 10:20:48;;;;;;;76.70;38.60;;;;;;;13.36;51.04;99366.37;233598;179;137902;-64
2024/03/21 10:25:51;;;;;;;65.00;38.90;;;;;;;13.59;50.76;99366.01;233712;179;137930;-64
2024/03/21 10:30:55;;;;;;;69.40;39.20;;;;;;;13.77;50.67;99365.50;233563;179;152985;-64
2024/03/21 10:35:58;;;;;;;72.40;40.90;;;;;;;13.96;50.44;99362.52;233702;179;138014;-64
2024/03/21 10:41:25;;;;;;;72.00;40.00;;;;;;;14.10;49.98;99355.23;233586;180;138086;-64
2024/03/21 10:46:29;;;;;;;63.70;39.10;;;;;;;14.30;49.24;99358.63;233700;180;153418;-64
2024/03/21 10:51:40;;;;;;;59.80;37.30;;;;;;;14.46;48.62;99349.66;233659;179;138575;-64
2024/03/21 10:56:46;;;;;;;59.20;35.30;;;;;;;14.67;47.30;99346.73;233560;179;138031;-64
2024/03/21 11:01:49;;;;;;;65.00;34.80;;;;;;;14.79;45.68;99335.99;233458;179;153739;-63
2024/03/21 11:06:52;;;;;;;58.40;35.10;;;;;;;14.94;45.01;99328.95;233698;180;137995;-63
2024/03/21 11:11:56;;;;;;;53.00;34.00;;;;;;;15.11;45.65;99325.88;233744;179;138045;-63
2024/03/21 11:16:59;;;;;;;55.90;35.30;;;;;;;15.46;45.65;99321.77;233673;179;154597;-63
2024/03/21 11:22:03;;;;;;;55.70;34.00;;;;;;;15.68;44.29;99312.95;233678;180;137331;-64
2024/03/21 11:27:15;;;;;;;55.70;33.20;;;;;;;15.88;44.30;99314.25;233450;179;138715;-62
2024/03/21 11:32:25;;;;;;;54.30;32.80;;;;;;;16.13;43.50;99312.06;233717;179;153755;-62
2024/03/21 11:37:28;;;;;;;279.30;191.20;;;;;;;16.35;43.03;99310.65;233606;179;138227;-57
2024/03/21 11:42:34;;;;;;;62.60;41.50;;;;;;;16.88;48.06;99301.01;233663;179;138297;-57
2024/03/21 11:47:37;;;;;;;56.60;35.40;;;;;;;17.64;44.83;99300.14;233680;179;153351;-58
2024/03/21 11:52:40;;;;;;;48.00;32.30;;;;;;;18.16;43.11;99296.27;233735;179;138085;-57
2024/03/21 11:57:44;;;;;;;42.10;31.00;;;;;;;18.60;42.15;99290.98;233703;179;137841;-57
2024/03/21 12:02:51;;;;;;;45.50;30.20;;;;;;;18.89;41.00;99282.14;233616;179;154205;-57
2024/03/21 12:07:54;;;;;;;43.70;26.10;;;;;;;19.09;40.25;99275.73;233536;179;141921;-57
2024/03/21 12:12:57;;;;;;;38.70;25.90;;;;;;;19.14;38.49;99274.02;233676;179;137661;-57
2024/03/21 12:18:00;;;;;;;38.70;26.10;;;;;;;19.01;37.72;99263.02;233601;169;153413;-56
2024/03/21 12:23:03;;;;;;;37.90;24.70;;;;;;;19.04;37.35;99259.48;233608;179;137849;-57
2024/03/21 12:28:06;;;;;;;42.60;26.20;;;;;;;19.03;37.70;99258.30;233717;179;137850;-55
2024/03/21 12:33:10;;;;;;;54.50;35.30;;;;;;;19.01;36.66;99255.99;233674;168;153030;-62
2024/03/21 12:38:13;;;;;;;47.60;31.40;;;;;;;18.92;35.53;99255.17;233503;179;138344;-62
2024/03/21 12:43:16;;;;;;;42.90;25.30;;;;;;;18.77;35.34;99251.74;233609;179;138632;-62
2024/03/21 12:48:19;;;;;;;46.10;27.40;;;;;;;18.65;34.73;99248.20;233707;179;153291;-61
2024/03/21 12:53:22;;;;;;;40.50;25.00;;;;;;;18.53;34.84;99249.64;233618;180;142484;-62
2024/03/21 12:58:25;;;;;;;44.00;26.50;;;;;;;18.65;34.54;99242.40;233722;179;138661;-62
2024/03/21 13:03:29;;;;;;;46.30;25.70;;;;;;;18.71;34.29;99231.29;233465;180;153018;-59
2024/03/21 13:08:32;;;;;;;44.00;25.70;;;;;;;18.75;33.93;99222.41;233709;180;138219;-59
2024/03/21 13:13:37;;;;;;;41.30;25.10;;;;;;;18.90;33.62;99220.02;233564;180;138782;-60
2024/03/21 13:18:40;;;;;;;39.20;25.30;;;;;;;18.99;33.20;99216.04;233722;180;153320;-59
2024/03/21 13:23:44;;;;;;;43.30;24.70;;;;;;;19.02;32.31;99211.07;233577;180;139622;-59
2024/03/21 13:28:46;;;;;;;43.80;25.80;;;;;;;19.16;32.73;99205.63;233633;180;137308;-60
2024/03/21 13:33:50;;;;;;;35.70;24.30;;;;;;;19.36;31.88;99202.50;233692;180;152970;-59
2024/03/21 13:38:57;;;;;;;38.20;24.60;;;;;;;19.55;32.16;99201.40;233686;179;138462;-59
2024/03/21 13:44:00;;;;;;;35.20;22.80;;;;;;;19.88;32.11;99195.71;233670;180;138662;-62
2024/03/21 13:49:08;;;;;;;40.80;23.80;;;;;;;20.14;31.94;99190.80;233699;168;153356;-62
2024/03/21 13:54:15;;;;;;;699.00;541.90;;;;;;;20.13;30.98;99187.61;233606;179;139995;-61
2024/03/21 13:59:18;;;;;;;46.80;29.10;;;;;;;19.74;31.10;99186.20;233298;180;137933;-63
2024/03/21 14:04:21;;;;;;;465.70;367.70;;;;;;;19.29;30.90;99182.47;233694;180;153390;-56
2024/03/21 14:09:24;;;;;;;37.80;26.00;;;;;;;19.10;34.92;99180.14;233655;180;137364;-62
2024/03/21 14:14:28;;;;;;;38.10;26.00;;;;;;;18.81;32.43;99177.67;233667;180;139905;-63
2024/03/21 14:19:31;;;;;;;39.50;25.40;;;;;;;18.32;32.71;99174.54;233594;180;153525;-65
2024/03/21 14:24:34;;;;;;;40.60;24.50;;;;;;;18.00;33.18;99172.20;233231;180;141842;-60
2024/03/21 14:29:38;;;;;;;36.60;23.80;;;;;;;17.72;33.20;99171.12;233700;180;138041;-59
2024/03/21 14:34:41;;;;;;;36.10;23.70;;;;;;;17.46;33.08;99171.78;233669;180;153047;-59
2024/03/21 14:39:44;;;;;;;34.70;23.10;;;;;;;17.26;33.77;99174.47;233596;180;147195;-58
2024/03/21 14:44:47;;;;;;;679.90;510.60;;;;;;;17.08;33.75;99167.27;233736;180;137893;-63
2024/03/21 14:49:51;;;;;;;41.50;26.90;;;;;;;16.98;34.41;99159.89;233677;179;155594;-63
2024/03/21 14:54:54;;;;;;;39.10;24.20;;;;;;;16.89;33.96;99155.77;233626;180;138080;-63
2024/03/21 14:59:59;;;;;;;37.00;22.50;;;;;;;16.79;33.40;99155.02;233619;179;138027;-63
2024/03/21 15:05:06;;;;;;;36.30;21.80;;;;;;;16.72;34.08;99155.27;233605;179;153972;-63
2024/03/21 15:10:10;;;;;;;36.40;23.70;;;;;;;16.60;34.34;99159.33;233374;180;138941;-62
2024/03/21 15:15:13;;;;;;;78.90;53.60;;;;;;;16.55;35.77;99159.58;233624;179;137534;-63
2024/03/21 15:20:16;;;;;;;37.70;22.40;;;;;;;16.61;35.40;99160.35;233585;180;153145;-63
2024/03/21 15:25:19;;;;;;;29.90;20.90;;;;;;;16.45;35.23;99158.42;233713;179;137684;-64
2024/03/21 15:30:22;;;;;;;33.20;21.70;;;;;;;16.34;35.29;99155.27;233680;179;138533;-65
2024/03/21 15:35:25;;;;;;;31.10;20.60;;;;;;;16.27;35.24;99154.03;233713;179;152956;-62
2024/03/21 15:40:30;;;;;;;30.60;21.00;;;;;;;16.22;35.25;99152.50;233324;179;138629;-65
2024/03/21 15:45:33;;;;;;;33.20;21.00;;;;;;;16.14;35.60;99148.91;233628;179;137566;-64
2024/03/21 15:50:36;;;;;;;36.60;21.00;;;;;;;16.03;35.69;99149.97;233443;180;153937;-63
2024/03/21 15:55:40;;;;;;;35.10;20.90;;;;;;;15.93;35.60;99150.98;233523;180;139002;-65
2024/03/21 16:00:44;;;;;;;32.40;20.30;;;;;;;15.83;35.52;99149.79;233567;179;139544;-63
2024/03/21 16:05:47;;;;;;;335.10;266.10;;;;;;;15.74;35.92;99150.71;233691;179;153330;-62
2024/03/21 16:10:50;;;;;;;65.00;45.20;;;;;;;15.73;36.39;99151.93;233274;168;138489;-63
2024/03/21 16:15:53;;;;;;;31.80;20.70;;;;;;;15.68;36.55;99150.30;233732;169;139061;-63
2024/03/21 16:20:56;;;;;;;34.60;18.90;;;;;;;15.60;36.00;99148.41;232904;179;153278;-64
2024/03/21 16:25:59;;;;;;;34.60;19.30;;;;;;;15.48;36.33;99150.15;233656;179;139150;-62
2024/03/21 16:31:02;;;;;;;32.90;19.00;;;;;;;15.34;37.27;99152.33;233313;179;138580;-64
2024/03/21 16:36:05;;;;;;;29.30;18.00;;;;;;;15.20;37.66;99156.30;233691;179;154759;-64
2024/03/21 16:41:09;;;;;;;27.80;17.90;;;;;;;15.07;37.75;99159.47;233596;179;137919;-62
2024/03/21 16:46:12;;;;;;;25.90;17.90;;;;;;;14.96;37.91;99162.51;233661;179;139179;-61
2024/03/21 16:51:15;;;;;;;28.40;16.80;;;;;;;14.81;37.61;99165.95;233709;179;153205;-63
2024/03/21 16:56:18;;;;;;;28.60;17.50;;;;;;;14.70;37.65;99163.56;233458;180;138281;-63
2024/03/21 17:01:21;;;;;;;31.50;17.90;;;;;;;14.60;37.90;99166.16;233611;179;138602;-62
2024/03/21 17:06:24;;;;;;;31.70;18.70;;;;;;;14.49;38.24;99166.27;233692;179;153909;-61
2024/03/21 17:11:27;;;;;;;36.00;18.00;;;;;;;14.40;38.01;99165.28;233415;180;138530;-60
2024/03/21 17:16:30;;;;;;;39.00;20.20;;;;;;;14.31;38.26;99168.67;233475;179;137708;-63
2024/03/21 17:21:33;;;;;;;45.50;21.60;;;;;;;14.19;39.21;99166.75;233644;180;153047;-63
2024/03/21 17:26:36;;;;;;;50.20;27.00;;;;;;;14.11;39.57;99171.58;233641;180;138155;-60
2024/03/21 17:31:39;;;;;;;47.90;21.80;;;;;;;14.06;40.20;99173.60;233641;179;138406;-61
2024/03/21 17:36:42;;;;;;;48.90;20.40;;;;;;;13.94;39.98;99175.91;233541;180;153895;-60
2024/03/21 17:41:46;;;;;;;43.00;20.90;;;;;;;13.81;40.34;99179.02;233598;179;138583;-60
2024/03/21 17:46:49;;;;;;;45.80;21.00;;;;;;;13.71;40.82;99183.09;232928;179;138817;-62
2024/03/21 17:51:52;;;;;;;44.30;21.20;;;;;;;13.61;41.50;99184.90;233542;179;154611;-61
2024/03/21 17:56:55;;;;;;;59.90;21.10;;;;;;;13.51;41.69;99191.13;233543;180;142280;-62
2024/03/21 18:01:58;;;;;;;52.00;20.30;;;;;;;13.45;41.79;99202.98;233222;180;138602;-62
2024/03/21 18:07:03;;;;;;;47.80;21.00;;;;;;;13.37;41.97;99209.41;233675;180;153458;-62
2024/03/21 18:12:06;;;;;;;47.10;21.00;;;;;;;13.31;42.33;99210.02;233655;168;138293;-63
2024/03/21 18:17:10;;;;;;;41.80;23.90;;;;;;;13.26;42.72;99212.52;233090;180;138864;-61
2024/03/21 18:22:13;;;;;;;59.60;26.50;;;;;;;13.23;43.21;99213.95;233413;180;153352;-62
2024/03/21 18:27:16;;;;;;;50.00;21.60;;;;;;;13.20;43.24;99219.73;233379;178;138564;-63
2024/03/21 18:32:20;;;;;;;49.40;20.50;;;;;;;13.11;43.56;99217.81;233676;180;139881;-61
2024/03/21 18:37:23;;;;;;;49.20;20.40;;;;;;;13.01;44.11;99209.77;233620;169;152958;-61
2024/03/21 18:42:26;;;;;;;48.40;19.70;;;;;;;12.94;44.53;99210.31;233683;180;139851;-62
2024/03/21 18:47:29;;;;;;;45.20;19.90;;;;;;;12.82;45.32;99208.75;233658;168;138033;-62
2024/03/21 18:52:33;;;;;;;49.60;21.40;;;;;;;12.76;45.62;99210.66;233686;179;154947;-62
2024/03/21 18:57:36;;;;;;;58.10;21.60;;;;;;;12.72;45.80;99211.76;233690;179;139669;-62
2024/03/21 19:02:39;;;;;;;50.10;22.60;;;;;;;12.70;45.25;99214.05;233669;180;138044;-63
2024/03/21 19:07:42;;;;;;;48.50;21.90;;;;;;;12.70;45.98;99216.02;233698;179;153896;-63
2024/03/21 19:12:45;;;;;;;47.40;23.60;;;;;;;12.68;46.10;99222.54;233561;180;137781;-64
2024/03/21 19:17:48;;;;;;;43.00;23.70;;;;;;;12.70;46.31;99220.98;233649;179;138259;-63
2024/03/21 19:22:51;;;;;;;41.40;23.00;;;;;;;12.71;46.78;99224.65;233696;179;154072;-64
2024/03/21 19:27:54;;;;;;;53.10;25.10;;;;;;;12.85;48.11;99224.30;233410;179;138658;-64
2024/03/21 19:32:59;;;;;;;52.20;26.80;;;;;;;12.92;47.37;99221.61;233233;179;139172;-63
2024/03/21 19:38:02;;;;;;;62.70;30.90;;;;;;;12.90;47.70;99228.04;233648;180;152852;-63
2024/03/21 19:43:05;;;;;;;50.20;29.50;;;;;;;12.86;47.89;99233.81;233640;179;138127;-63
2024/03/21 19:48:09;;;;;;;55.60;29.50;;;;;;;12.78;47.90;99233.77;233559;169;137865;-64
2024/03/21 19:53:12;;;;;;;121.10;76.70;;;;;;;12.74;48.33;99232.83;233568;180;154208;-62
2024/03/21 19:58:15;;;;;;;63.20;38.90;;;;;;;12.77;48.19;99233.17;233592;179;138155;-62
2024/03/21 20:03:20;;;;;;;54.20;33.20;;;;;;;12.74;48.29;99229.80;233607;179;137010;-64
2024/03/21 20:08:23;;;;;;;56.10;34.30;;;;;;;12.67;48.83;99231.52;233589;179;153916;-64
2024/03/21 20:13:26;;;;;;;63.00;32.40;;;;;;;12.63;48.80;99229.16;233688;179;138408;-62
2024/03/21 20:18:29;;;;;;;59.20;33.50;;;;;;;12.59;49.14;99228.02;233553;179;138258;-59
2024/03/21 20:23:32;;;;;;;58.80;34.10;;;;;;;12.52;49.28;99229.48;233571;179;153179;-60
2024/03/21 20:28:36;;;;;;;56.80;32.10;;;;;;;12.48;49.38;99226.79;233616;168;137905;-61
2024/03/21 20:33:39;;;;;;;61.60;33.30;;;;;;;12.45;50.43;99225.73;233787;179;138493;-66
2024/03/21 20:38:44;;;;;;;64.70;32.10;;;;;;;12.43;50.48;99226.77;233713;179;153934;-65
2024/03/21 20:43:47;;;;;;;59.30;31.90;;;;;;;12.40;50.37;99229.23;233036;179;138670;-65
2024/03/21 20:48:50;;;;;;;60.20;32.00;;;;;;;12.37;51.29;99230.67;233683;179;138668;-64
2024/03/21 20:53:53;;;;;;;63.60;31.20;;;;;;;12.36;51.74;99232.89;233665;179;153863;-63
2024/03/21 20:58:56;;;;;;;73.90;33.80;;;;;;;12.36;52.54;99231.48;233569;180;137935;-62
2024/03/21 21:04:02;;;;;;;71.60;35.50;;;;;;;12.35;52.79;99233.53;233365;180;137444;-62
2024/03/21 21:09:05;;;;;;;100.80;36.90;;;;;;;12.31;52.63;99237.83;233606;180;154249;-62
2024/03/21 21:14:08;;;;;;;82.40;36.50;;;;;;;12.29;52.98;99243.66;233752;180;138207;-62
2024/03/21 21:19:12;;;;;;;75.70;36.50;;;;;;;12.25;53.71;99249.99;233862;180;138126;-63
2024/03/21 21:24:15;;;;;;;68.60;35.20;;;;;;;12.20;53.80;99247.98;233392;180;152930;-62
2024/03/21 21:29:17;;;;;;;76.20;35.90;;;;;;;12.17;54.04;99249.96;233789;180;137114;-62
2024/03/21 21:34:21;;;;;;;80.20;36.80;;;;;;;12.15;53.93;99244.97;233751;180;138054;-62
2024/03/21 21:39:24;;;;;;;85.50;36.70;;;;;;;12.13;54.46;99228.58;233731;180;154445;-61
2024/03/21 21:44:27;;;;;;;73.40;36.00;;;;;;;12.10;54.66;99226.77;233641;180;137260;-63
2024/03/21 21:49:30;;;;;;;63.30;36.00;;;;;;;12.04;54.51;99230.67;233727;180;138060;-63
2024/03/21 21:54:37;;;;;;;70.80;39.00;;;;;;;12.01;54.74;99229.48;232996;180;153212;-63
2024/03/21 21:59:41;;;;;;;78.60;39.60;;;;;;;11.96;54.90;99228.57;233704;180;137424;-62
2024/03/21 22:04:44;;;;;;;73.00;39.40;;;;;;;11.89;54.92;99233.13;233813;180;138382;-62
2024/03/21 22:09:47;;;;;;;72.80;37.30;;;;;;;11.83;55.15;99234.86;233758;180;153052;-62
2024/03/21 22:14:50;;;;;;;71.60;37.30;;;;;;;11.80;55.39;99224.40;233622;180;137580;-62
2024/03/21 22:19:53;;;;;;;70.60;38.20;;;;;;;11.82;54.55;99212.73;233290;180;138638;-63
2024/03/21 22:24:58;;;;;;;71.20;37.90;;;;;;;11.82;54.31;99211.67;233755;180;152967;-63
2024/03/21 22:30:02;;;;;;;;;;;;;;;11.77;54.19;99204.17;233787;179;137837;-63
2024/03/21 22:35:05;;;;;;;73.00;37.80;;;;;;;11.73;54.59;99204.24;233832;180;138137;-63
2024/03/21 22:40:09;;;;;;;70.30;37.50;;;;;;;11.69;53.34;99205.58;233614;180;154437;-62
2024/03/21 22:45:12;;;;;;;63.00;33.50;;;;;;;11.71;53.04;99208.44;233669;180;137675;-62
2024/03/21 22:50:15;;;;;;;50.50;30.80;;;;;;;11.76;52.62;99205.44;233526;179;139424;-62
2024/03/21 22:55:17;;;;;;;43.90;25.40;;;;;;;11.79;51.58;99212.40;233591;180;154505;-62
2024/03/21 23:05:32;;;;;;;41.80;25.30;;;;;;;11.87;50.83;99217.98;233693;180;137453;-62
2024/03/21 23:10:36;;;;;;;49.90;26.40;;;;;;;11.90;50.69;99216.33;233652;180;152943;-63